createdAt,value
2022-09-14T00:01:28.168Z,100179.91
2022-09-14T00:03:56.297Z,100173.69
2022-09-14T00:06:25.187Z,100169.38
2022-09-14T00:08:53.043Z,100176.56
2022-09-14T00:11:20.785Z,100167.50
2022-09-14T00:13:48.216Z,100168.34
2022-09-14T00:16:16.439Z,100170.69
2022-09-14T00:18:43.899Z,100152.81
2022-09-14T00:21:12.076Z,100158.16
2022-09-14T00:23:41.328Z,100156.31
2022-09-14T00:26:10.015Z,100155.47
2022-09-14T00:28:38.658Z,100149.44
2022-09-14T00:31:06.356Z,100160.63
2022-09-14T00:33:34.118Z,100153.63
2022-09-14T00:36:09.552Z,100154.47
2022-09-14T00:38:37.023Z,100144.94
2022-09-14T00:41:08.365Z,100147.63
2022-09-14T00:43:57.083Z,100135.91
2022-09-14T00:46:24.548Z,100138.91
2022-09-14T00:48:51.960Z,100130.72
2022-09-14T00:51:19.962Z,100135.41
2022-09-14T00:53:47.562Z,100132.56
2022-09-14T00:56:16.230Z,100123.88
2022-09-14T00:58:43.851Z,100136.25
2022-09-14T01:01:11.373Z,100125.53
2022-09-14T01:03:38.812Z,100119.38
2022-09-14T01:06:09.506Z,100125.53
2022-09-14T01:08:47.200Z,100123.06
2022-09-14T01:11:26.153Z,100127.22
2022-09-14T01:13:57.073Z,100126.56
2022-09-14T01:16:27.060Z,100116.53
2022-09-14T01:18:56.972Z,100125.53
2022-09-14T01:21:25.531Z,100117.88
2022-09-14T01:23:57.803Z,100114.84
2022-09-14T01:26:35.935Z,100116.19
2022-09-14T01:29:06.558Z,100112.38
2022-09-14T01:31:36.576Z,100112.38
2022-09-14T01:34:07.451Z,100114.00
2022-09-14T01:36:35.480Z,100115.22
2022-09-14T01:39:02.866Z,100122.88
2022-09-14T01:41:31.352Z,100118.06
2022-09-14T01:44:00.341Z,100111.69
2022-09-14T01:46:31.222Z,100112.38
2022-09-14T01:49:02.037Z,100105.16
2022-09-14T01:51:30.897Z,100114.00
2022-09-14T01:54:01.286Z,100110.50
2022-09-14T01:56:33.131Z,100117.88
2022-09-14T01:59:03.141Z,100125.75
2022-09-14T02:01:33.866Z,100120.38
2022-09-14T02:04:03.476Z,100114.19
2022-09-14T02:06:33.391Z,100109.00
2022-09-14T02:09:00.968Z,100107.19
2022-09-14T02:11:28.502Z,100113.34
2022-09-14T02:13:55.876Z,100104.50
2022-09-14T02:16:23.294Z,100103.47
2022-09-14T02:18:52.014Z,100104.50
2022-09-14T02:21:20.725Z,100109.84
2022-09-14T02:23:48.992Z,100109.84
2022-09-14T02:26:16.575Z,100099.16
2022-09-14T02:28:43.993Z,100102.81
2022-09-14T02:31:14.410Z,100100.81
2022-09-14T02:33:49.096Z,100107.19
2022-09-14T02:36:27.175Z,100102.66
2022-09-14T02:38:58.267Z,100099.16
2022-09-14T02:41:27.689Z,100093.81
2022-09-14T02:43:56.810Z,100094.81
2022-09-14T02:46:27.463Z,100088.47
2022-09-14T02:48:56.770Z,100085.09
2022-09-14T02:51:28.856Z,100093.31
2022-09-14T02:53:59.434Z,100099.50
2022-09-14T02:56:26.923Z,100098.69
2022-09-14T02:58:54.312Z,100096.16
2022-09-14T03:01:22.559Z,100093.66
2022-09-14T03:03:50.027Z,100093.66
2022-09-14T03:06:17.497Z,100096.16
2022-09-14T03:08:46.161Z,100092.63
2022-09-14T03:11:13.577Z,100090.13
2022-09-14T03:13:40.954Z,100099.00
2022-09-14T03:16:09.161Z,100092.81
2022-09-14T03:18:36.794Z,100093.84
2022-09-14T03:21:05.215Z,100100.84
2022-09-14T03:23:36.489Z,100107.88
2022-09-14T03:26:07.682Z,100115.06
2022-09-14T03:28:35.076Z,100114.41
2022-09-14T03:31:02.536Z,100098.16
2022-09-14T03:33:29.967Z,100108.03
2022-09-14T03:35:57.369Z,100093.66
2022-09-14T03:38:27.791Z,100087.47
2022-09-14T03:40:55.263Z,100082.78
2022-09-14T03:43:23.974Z,100082.09
2022-09-14T03:45:51.362Z,100080.47
2022-09-14T03:48:18.744Z,100080.47
2022-09-14T03:50:46.135Z,100076.97
2022-09-14T03:53:13.520Z,100085.81
2022-09-14T03:55:41.129Z,100096.69
2022-09-14T03:58:08.519Z,100085.31
2022-09-14T04:00:37.300Z,100088.81
2022-09-14T04:03:04.769Z,100078.78
2022-09-14T04:05:32.225Z,100078.78
2022-09-14T04:07:59.627Z,100079.13
2022-09-14T04:10:27.014Z,100080.81
2022-09-14T04:12:54.397Z,100075.44
2022-09-14T04:15:21.792Z,100086.16
2022-09-14T04:17:51.212Z,100086.16
2022-09-14T04:20:19.026Z,100095.69
2022-09-14T04:22:46.597Z,100097.34
2022-09-14T04:25:14.105Z,100089.47
2022-09-14T04:27:41.493Z,100080.81
2022-09-14T04:30:09.300Z,100080.63
2022-09-14T04:32:36.701Z,100075.44
2022-09-14T04:35:05.842Z,100070.09
2022-09-14T04:37:33.267Z,100070.09
2022-09-14T04:40:00.759Z,100076.44
2022-09-14T04:42:28.174Z,100074.63
2022-09-14T04:44:55.599Z,100082.66
2022-09-14T04:47:22.997Z,100081.63
2022-09-14T04:49:50.388Z,100073.78
2022-09-14T04:52:19.292Z,100073.44
2022-09-14T04:54:46.692Z,100062.72
2022-09-14T04:57:14.246Z,100066.44
2022-09-14T04:59:41.692Z,100060.22
2022-09-14T05:02:09.214Z,100065.75
2022-09-14T05:04:36.623Z,100053.41
2022-09-14T05:07:04.176Z,100055.75
2022-09-14T05:09:32.845Z,100055.94
2022-09-14T05:12:00.289Z,100053.09
2022-09-14T05:14:27.692Z,100049.75
2022-09-14T05:16:56.422Z,100053.44
2022-09-14T05:19:23.800Z,100049.75
2022-09-14T05:21:51.196Z,100050.59
2022-09-14T05:24:19.234Z,100062.75
2022-09-14T05:26:48.036Z,100061.91
2022-09-14T05:29:16.104Z,100062.56
2022-09-14T05:31:43.539Z,100064.41
2022-09-14T05:34:11.182Z,100061.44
2022-09-14T05:36:38.684Z,100062.09
2022-09-14T05:39:06.093Z,100054.44
2022-09-14T05:41:33.490Z,100073.16
2022-09-14T05:44:02.253Z,100068.81
2022-09-14T05:46:29.740Z,100066.16
2022-09-14T05:48:57.170Z,100064.47
2022-09-14T05:51:25.306Z,100061.78
2022-09-14T05:53:53.512Z,100070.28
2022-09-14T05:56:21.539Z,100063.31
2022-09-14T05:58:49.057Z,100049.63
2022-09-14T06:01:18.595Z,100056.13
2022-09-14T06:03:46.544Z,100056.50
2022-09-14T06:06:15.933Z,100045.97
2022-09-14T06:08:43.334Z,100044.94
2022-09-14T06:11:12.693Z,100048.47
2022-09-14T06:13:40.108Z,100042.94
2022-09-14T06:16:08.985Z,100038.59
2022-09-14T06:18:38.041Z,100033.44
2022-09-14T06:21:05.707Z,100042.94
2022-09-14T06:23:33.421Z,100038.59
2022-09-14T06:26:01.648Z,100036.75
2022-09-14T06:28:29.283Z,100032.44
2022-09-14T06:30:56.738Z,100037.94
2022-09-14T06:33:24.131Z,100040.78
2022-09-14T06:36:00.053Z,100032.94
2022-09-14T06:38:27.852Z,100038.28
2022-09-14T06:40:56.840Z,100040.31
2022-09-14T06:43:24.476Z,100041.13
2022-09-14T06:45:57.115Z,100038.75
2022-09-14T06:48:24.518Z,100035.25
2022-09-14T06:50:52.012Z,100040.63
2022-09-14T06:53:21.013Z,100036.09
2022-09-14T06:55:48.420Z,100029.91
2022-09-14T06:58:15.804Z,100036.09
2022-09-14T07:00:43.182Z,100047.59
2022-09-14T07:03:10.655Z,100041.44
2022-09-14T07:05:38.088Z,100037.13
2022-09-14T07:08:07.979Z,100036.44
2022-09-14T07:10:43.013Z,100044.63
2022-09-14T07:13:10.582Z,100040.47
2022-09-14T07:15:37.966Z,100040.47
2022-09-14T07:18:05.371Z,100035.13
2022-09-14T07:20:32.868Z,100030.44
2022-09-14T07:23:00.319Z,100032.28
2022-09-14T07:25:27.735Z,100045.63
2022-09-14T07:27:56.409Z,100048.16
2022-09-14T07:30:24.972Z,100038.44
2022-09-14T07:32:52.547Z,100033.09
2022-09-14T07:35:19.955Z,100038.63
2022-09-14T07:37:47.337Z,100043.78
2022-09-14T07:40:14.909Z,100035.78
2022-09-14T07:42:42.354Z,100031.44
2022-09-14T07:45:11.536Z,100033.09
2022-09-14T07:47:38.939Z,100031.44
2022-09-14T07:50:06.817Z,100033.91
2022-09-14T07:52:38.578Z,100035.78
2022-09-14T07:55:08.057Z,100035.59
2022-09-14T07:57:55.192Z,100037.13
2022-09-14T08:00:24.171Z,100042.47
2022-09-14T08:02:55.080Z,100030.91
2022-09-14T08:05:22.628Z,100043.13
2022-09-14T08:07:54.519Z,100044.75
2022-09-14T08:10:21.937Z,100044.75
2022-09-14T08:12:51.642Z,100045.66
2022-09-14T08:15:19.181Z,100040.44
2022-09-14T08:17:48.406Z,100043.94
2022-09-14T08:20:16.493Z,100034.97
2022-09-14T08:22:44.120Z,100041.97
2022-09-14T08:25:11.676Z,100042.59
2022-09-14T08:27:39.124Z,100039.13
2022-09-14T08:30:07.515Z,100047.78
2022-09-14T08:32:34.921Z,100043.63
2022-09-14T08:35:03.631Z,100035.44
2022-09-14T08:37:31.026Z,100030.91
2022-09-14T08:39:58.585Z,100030.91
2022-09-14T08:42:26.060Z,100033.44
2022-09-14T08:44:54.886Z,100026.88
2022-09-14T08:47:24.779Z,100035.59
2022-09-14T08:49:54.162Z,100030.38
2022-09-14T08:52:26.458Z,100032.34
2022-09-14T08:54:55.216Z,100040.38
2022-09-14T08:57:29.819Z,100032.38
2022-09-14T09:00:04.211Z,100035.22
2022-09-14T09:02:38.667Z,100037.06
2022-09-14T09:05:19.484Z,100033.06
2022-09-14T09:07:50.808Z,100026.69
2022-09-14T09:10:18.314Z,100018.00
2022-09-14T09:12:46.885Z,100018.00
2022-09-14T09:15:17.627Z,100013.31
2022-09-14T09:17:46.200Z,100017.34
2022-09-14T09:20:15.633Z,100013.00
2022-09-14T09:22:45.717Z,100016.69
2022-09-14T09:25:17.963Z,100027.75
2022-09-14T09:27:47.509Z,100007.50
2022-09-14T09:30:15.281Z,100010.03
2022-09-14T09:32:42.865Z,100010.84
2022-09-14T09:35:32.228Z,100014.72
2022-09-14T09:38:02.498Z,100017.22
2022-09-14T09:40:32.717Z,100012.03
2022-09-14T09:43:10.850Z,100005.00
2022-09-14T09:45:56.800Z,100005.00
2022-09-14T09:48:25.765Z,99999.66
2022-09-14T09:51:00.309Z,100004.00
2022-09-14T09:53:27.703Z,100006.69
2022-09-14T09:55:56.352Z,99998.66
2022-09-14T09:58:27.896Z,100000.47
2022-09-14T10:00:59.794Z,99996.31
2022-09-14T10:03:32.484Z,99987.47
2022-09-14T10:06:04.399Z,99991.97
2022-09-14T10:08:34.782Z,99992.31
2022-09-14T10:11:04.353Z,99994.81
2022-09-14T10:13:38.233Z,99991.31
2022-09-14T10:16:07.866Z,99991.31
2022-09-14T10:18:35.496Z,99989.81
2022-09-14T10:21:08.184Z,99985.28
2022-09-14T10:23:37.328Z,99994.28
2022-09-14T10:26:26.905Z,99982.13
2022-09-14T10:28:54.311Z,99986.59
2022-09-14T10:31:25.943Z,99989.28
2022-09-14T10:33:55.838Z,99980.44
2022-09-14T10:36:24.519Z,99980.59
2022-09-14T10:38:55.064Z,99981.63
2022-09-14T10:41:30.964Z,99983.63
2022-09-14T10:44:09.561Z,99971.75
2022-09-14T10:46:40.387Z,99979.28
2022-09-14T10:49:18.185Z,99971.72
2022-09-14T10:51:50.167Z,99970.22
2022-09-14T10:54:26.940Z,99962.38
2022-09-14T10:57:03.520Z,99966.25
2022-09-14T10:59:33.096Z,99961.91
2022-09-14T11:02:27.108Z,99962.72
2022-09-14T11:05:02.741Z,99971.91
2022-09-14T11:07:33.259Z,99974.03
2022-09-14T11:10:03.794Z,99973.03
2022-09-14T11:12:35.172Z,99978.03
2022-09-14T11:15:07.238Z,99970.84
2022-09-14T11:17:46.255Z,99980.53
2022-09-14T11:20:20.331Z,99978.53
2022-09-14T11:22:51.088Z,99984.22
2022-09-14T11:25:20.023Z,99970.00
2022-09-14T11:27:50.838Z,99971.19
2022-09-14T11:30:19.621Z,99962.69
2022-09-14T11:32:48.977Z,99962.03
2022-09-14T11:35:18.718Z,99967.56
2022-09-14T11:37:47.790Z,99976.59
2022-09-14T11:40:17.532Z,99975.09
2022-09-14T11:42:46.964Z,99975.56
2022-09-14T11:45:19.913Z,99969.88
2022-09-14T11:47:50.161Z,99962.50
2022-09-14T11:50:20.071Z,99966.00
2022-09-14T11:52:48.077Z,99972.03
2022-09-14T11:55:17.451Z,99968.81
2022-09-14T11:57:45.170Z,99962.47
2022-09-14T12:00:45.740Z,99956.94
2022-09-14T12:03:15.361Z,99952.06
2022-09-14T12:05:44.730Z,99943.03
2022-09-14T12:08:32.972Z,99946.72
2022-09-14T12:11:02.204Z,99942.72
2022-09-14T12:13:29.587Z,99943.09
2022-09-14T12:16:05.702Z,99947.78
2022-09-14T12:18:33.287Z,99947.78
2022-09-14T12:21:05.410Z,99947.78
2022-09-14T12:23:33.933Z,99952.13
2022-09-14T12:26:05.701Z,99952.94
2022-09-14T12:28:48.146Z,99949.63
2022-09-14T12:31:40.757Z,99940.78
2022-09-14T12:34:26.964Z,99944.28
2022-09-14T12:37:16.265Z,99945.31
2022-09-14T12:39:44.142Z,99942.78
2022-09-14T12:42:28.538Z,99941.78
2022-09-14T12:44:55.969Z,99942.78
2022-09-14T12:47:54.828Z,99933.91
2022-09-14T12:50:22.806Z,99923.22
2022-09-14T12:53:17.165Z,99930.91
2022-09-14T12:55:57.799Z,99927.22
2022-09-14T12:58:34.754Z,99924.22
2022-09-14T13:01:11.795Z,99924.69
2022-09-14T13:03:47.197Z,99914.97
2022-09-14T13:06:14.649Z,99910.63
2022-09-14T13:08:45.026Z,99914.00
2022-09-14T13:11:26.488Z,99912.97
2022-09-14T13:13:53.877Z,99890.91
2022-09-14T13:16:30.776Z,99891.91
2022-09-14T13:19:04.637Z,99886.78
2022-09-14T13:21:32.093Z,99877.91
2022-09-14T13:23:59.502Z,99879.91
2022-09-14T13:26:28.032Z,99874.56
2022-09-14T13:28:56.093Z,99872.91
2022-09-14T13:31:27.506Z,99870.22
2022-09-14T13:33:55.271Z,99867.53
2022-09-14T13:36:26.018Z,99871.25
2022-09-14T13:38:53.462Z,99870.44
2022-09-14T13:41:22.763Z,99866.91
2022-09-14T13:43:52.250Z,99869.75
2022-09-14T13:46:20.624Z,99858.41
2022-09-14T13:48:48.199Z,99861.06
2022-09-14T13:51:15.803Z,99860.06
2022-09-14T13:53:48.388Z,99862.09
2022-09-14T13:56:26.407Z,99864.94
2022-09-14T13:59:15.534Z,99870.28
2022-09-14T14:01:43.910Z,99856.28
2022-09-14T14:04:24.089Z,99856.28
2022-09-14T14:06:59.740Z,99851.75
2022-09-14T14:09:42.536Z,99843.31
2022-09-14T14:12:10.224Z,99846.28
2022-09-14T14:14:37.617Z,99841.59
2022-09-14T14:17:22.105Z,99838.06
2022-09-14T14:19:49.855Z,99831.06
2022-09-14T14:22:18.847Z,99818.72
2022-09-14T14:25:12.405Z,99826.56
2022-09-14T14:27:37.542Z,99836.13
2022-09-14T14:30:13.168Z,99826.59
2022-09-14T14:32:40.546Z,99824.13
2022-09-14T14:35:09.491Z,99823.63
2022-09-14T14:37:36.881Z,99821.13
2022-09-14T14:40:06.407Z,99822.00
2022-09-14T14:42:33.900Z,99827.34
2022-09-14T14:45:01.437Z,99821.31
2022-09-14T14:47:28.820Z,99827.53
2022-09-14T14:49:56.340Z,99828.50
2022-09-14T14:52:23.855Z,99813.50
2022-09-14T14:54:51.248Z,99821.53
2022-09-14T14:57:19.914Z,99830.38
2022-09-14T14:59:51.505Z,99828.69
2022-09-14T15:02:18.925Z,99824.19
2022-09-14T15:04:46.313Z,99815.31
2022-09-14T15:07:13.689Z,99815.50
2022-09-14T15:09:41.077Z,99811.81
2022-09-14T15:12:09.361Z,99811.00
2022-09-14T15:14:38.048Z,99800.31
2022-09-14T15:17:05.436Z,99804.81
2022-09-14T15:19:32.919Z,99807.66
2022-09-14T15:22:01.632Z,99793.47
2022-09-14T15:24:29.647Z,99798.81
2022-09-14T15:26:57.515Z,99802.31
2022-09-14T15:29:24.901Z,99806.84
2022-09-14T15:31:53.735Z,99808.69
2022-09-14T15:34:21.175Z,99807.00
2022-09-14T15:36:50.886Z,99803.50
2022-09-14T15:39:19.881Z,99806.34
2022-09-14T15:41:47.365Z,99807.56
2022-09-14T15:44:15.472Z,99797.69
2022-09-14T15:46:44.387Z,99792.34
2022-09-14T15:49:14.806Z,99794.84
2022-09-14T15:51:43.145Z,99802.44
2022-09-14T15:54:10.547Z,99796.06
2022-09-14T15:56:37.993Z,99794.97
2022-09-14T15:59:05.498Z,99792.63
2022-09-14T16:01:33.031Z,99800.84
2022-09-14T16:04:01.056Z,99801.84
2022-09-14T16:06:29.793Z,99795.66
2022-09-14T16:08:57.622Z,99800.19
2022-09-14T16:11:25.069Z,99800.38
2022-09-14T16:13:52.600Z,99802.22
2022-09-14T16:16:20.653Z,99805.47
2022-09-14T16:18:49.812Z,99802.38
2022-09-14T16:21:18.255Z,99805.69
2022-09-14T16:23:48.522Z,99805.50
2022-09-14T16:26:18.078Z,99805.34
2022-09-14T16:28:46.257Z,99795.63
2022-09-14T16:31:14.531Z,99790.28
2022-09-14T16:33:42.976Z,99779.97
2022-09-14T16:36:11.402Z,99793.53
2022-09-14T16:38:38.910Z,99794.16
2022-09-14T16:41:07.720Z,99801.19
2022-09-14T16:43:35.224Z,99800.97
2022-09-14T16:46:04.154Z,99800.97
2022-09-14T16:48:32.306Z,99800.63
2022-09-14T16:51:01.876Z,99800.63
2022-09-14T16:53:29.400Z,99794.28
2022-09-14T16:56:01.823Z,99794.94
2022-09-14T16:58:30.544Z,99800.28
2022-09-14T17:00:58.196Z,99806.63
2022-09-14T17:03:29.781Z,99799.47
2022-09-14T17:06:01.621Z,99788.19
2022-09-14T17:08:29.508Z,99785.16
2022-09-14T17:10:56.917Z,99786.19
2022-09-14T17:13:24.765Z,99782.03
2022-09-14T17:15:53.590Z,99787.09
2022-09-14T17:18:21.061Z,99786.63
2022-09-14T17:20:55.297Z,99778.31
2022-09-14T17:23:22.820Z,99779.97
2022-09-14T17:25:50.246Z,99782.19
2022-09-14T17:28:17.721Z,99780.34
2022-09-14T17:30:45.341Z,99779.50
2022-09-14T17:33:14.040Z,99774.50
2022-09-14T17:35:46.747Z,99769.63
2022-09-14T17:38:14.133Z,99777.66
2022-09-14T17:40:41.519Z,99777.84
2022-09-14T17:43:08.968Z,99767.59
2022-09-14T17:45:36.373Z,99772.13
2022-09-14T17:48:04.745Z,99772.94
2022-09-14T17:50:33.460Z,99775.28
2022-09-14T17:53:01.010Z,99769.94
2022-09-14T17:55:28.608Z,99774.81
2022-09-14T17:57:55.995Z,99780.34
2022-09-14T18:00:23.388Z,99776.63
2022-09-14T18:02:51.581Z,99774.16
2022-09-14T18:05:18.988Z,99769.63
2022-09-14T18:07:47.659Z,99765.28
2022-09-14T18:10:17.544Z,99765.47
2022-09-14T18:12:44.945Z,99752.31
2022-09-14T18:15:15.248Z,99753.31
2022-09-14T18:17:43.757Z,99747.31
2022-09-14T18:20:11.749Z,99744.63
2022-09-14T18:22:39.206Z,99748.94
2022-09-14T18:25:08.735Z,99750.97
2022-09-14T18:27:36.244Z,99750.16
2022-09-14T18:30:03.724Z,99750.34
2022-09-14T18:32:31.119Z,99744.00
2022-09-14T18:34:58.514Z,99741.31
2022-09-14T18:37:26.631Z,99741.31
2022-09-14T18:39:54.114Z,99733.66
2022-09-14T18:42:22.907Z,99736.97
2022-09-14T18:44:53.836Z,99741.31
2022-09-14T18:47:22.402Z,99740.63
2022-09-14T18:49:50.676Z,99750.34
2022-09-14T18:52:18.191Z,99744.16
2022-09-14T18:54:45.636Z,99749.34
2022-09-14T18:57:13.107Z,99755.50
2022-09-14T18:59:41.796Z,99746.00
2022-09-14T19:02:09.922Z,99742.31
2022-09-14T19:04:37.423Z,99743.50
2022-09-14T19:07:04.944Z,99732.78
2022-09-14T19:09:32.421Z,99737.31
2022-09-14T19:11:59.904Z,99737.31
2022-09-14T19:14:27.400Z,99741.03
2022-09-14T19:16:57.960Z,99743.50
2022-09-14T19:19:26.228Z,99740.00
2022-09-14T19:21:53.874Z,99738.34
2022-09-14T19:24:21.338Z,99741.03
2022-09-14T19:26:49.723Z,99753.34
2022-09-14T19:29:19.257Z,99752.53
2022-09-14T19:31:50.800Z,99744.69
2022-09-14T19:34:19.625Z,99741.19
2022-09-14T19:36:47.458Z,99750.88
2022-09-14T19:39:15.261Z,99749.22
2022-09-14T19:41:42.753Z,99750.88
2022-09-14T19:44:11.184Z,99753.72
2022-09-14T19:46:39.678Z,99757.41
2022-09-14T19:49:07.656Z,99757.06
2022-09-14T19:51:36.356Z,99754.56
2022-09-14T19:54:03.834Z,99748.38
2022-09-14T19:56:32.064Z,99750.50
2022-09-14T19:59:00.392Z,99759.75
2022-09-14T20:01:28.534Z,99759.06
2022-09-14T20:03:56.165Z,99754.91
2022-09-14T20:06:25.859Z,99746.72
2022-09-14T20:08:55.351Z,99752.25
2022-09-14T20:11:23.794Z,99747.91
2022-09-14T20:13:51.167Z,99750.56
2022-09-14T20:16:19.674Z,99743.59
2022-09-14T20:18:47.531Z,99747.06
2022-09-14T20:21:15.828Z,99744.53
2022-09-14T20:23:58.266Z,99748.03
2022-09-14T20:26:32.135Z,99742.88
2022-09-14T20:29:00.489Z,99747.41
2022-09-14T20:31:28.468Z,99754.41
2022-09-14T20:33:55.981Z,99755.59
2022-09-14T20:36:25.032Z,99746.94
2022-09-14T20:38:55.039Z,99755.59
2022-09-14T20:41:23.171Z,99737.06
2022-09-14T20:43:52.198Z,99735.22
2022-09-14T20:46:20.539Z,99740.59
2022-09-14T20:48:48.340Z,99740.75
2022-09-14T20:51:20.703Z,99745.25
2022-09-14T20:54:03.667Z,99748.78
2022-09-14T20:56:32.080Z,99744.44
2022-09-14T20:59:01.572Z,99747.09
2022-09-14T21:01:30.267Z,99755.94
2022-09-14T21:04:02.745Z,99755.13
2022-09-14T21:06:30.125Z,99752.63
2022-09-14T21:08:57.610Z,99744.44
2022-09-14T21:11:25.869Z,99748.94
2022-09-14T21:13:54.624Z,99750.59
2022-09-14T21:16:25.544Z,99745.47
2022-09-14T21:18:56.444Z,99749.13
2022-09-14T21:21:23.856Z,99742.78
2022-09-14T21:23:51.245Z,99742.78
2022-09-14T21:26:19.144Z,99743.13
2022-09-14T21:28:46.870Z,99742.78
2022-09-14T21:31:15.224Z,99746.47
2022-09-14T21:33:44.840Z,99737.44
2022-09-14T21:36:13.739Z,99747.44
2022-09-14T21:38:41.274Z,99751.31
2022-09-14T21:41:09.208Z,99749.47
2022-09-14T21:43:37.075Z,99753.81
2022-09-14T21:46:04.583Z,99751.63
2022-09-14T21:48:32.065Z,99750.59
2022-09-14T21:51:05.197Z,99752.09
2022-09-14T21:53:32.649Z,99751.91
2022-09-14T21:56:00.109Z,99750.88
2022-09-14T21:58:27.591Z,99753.38
2022-09-14T22:00:58.588Z,99752.56
2022-09-14T22:03:26.046Z,99741.38
2022-09-14T22:05:57.580Z,99737.69
2022-09-14T22:08:26.249Z,99740.34
2022-09-14T22:10:53.649Z,99738.13
2022-09-14T22:13:21.090Z,99736.63
2022-09-14T22:15:48.521Z,99740.75
2022-09-14T22:18:15.972Z,99736.06
2022-09-14T22:20:43.537Z,99729.53
2022-09-14T22:23:10.918Z,99727.84
2022-09-14T22:25:43.041Z,99740.56
2022-09-14T22:28:10.419Z,99734.41
2022-09-14T22:30:37.859Z,99734.41
2022-09-14T22:33:05.317Z,99743.25
2022-09-14T22:35:32.683Z,99745.28
2022-09-14T22:38:01.571Z,99735.22
2022-09-14T22:40:29.006Z,99736.91
2022-09-14T22:42:58.059Z,99731.56
2022-09-14T22:45:25.441Z,99729.25
2022-09-14T22:47:52.826Z,99722.22
2022-09-14T22:50:20.582Z,99717.53
2022-09-14T22:52:47.973Z,99722.88
2022-09-14T22:55:15.460Z,99720.22
2022-09-14T22:57:42.859Z,99729.25
2022-09-14T23:00:13.153Z,99732.25
2022-09-14T23:02:40.562Z,99733.94
2022-09-14T23:05:08.512Z,99738.44
2022-09-14T23:07:35.897Z,99738.06
2022-09-14T23:10:03.311Z,99739.09
2022-09-14T23:12:30.691Z,99738.25
2022-09-14T23:14:58.068Z,99741.78
2022-09-14T23:17:26.764Z,99730.41
2022-09-14T23:19:54.154Z,99734.94
2022-09-14T23:22:22.008Z,99732.44
2022-09-14T23:24:49.405Z,99731.63
2022-09-14T23:27:16.791Z,99730.63
2022-09-14T23:29:44.171Z,99733.28
2022-09-14T23:32:11.552Z,99722.59
2022-09-14T23:34:40.232Z,99722.38
2022-09-14T23:37:07.627Z,99716.75
2022-09-14T23:39:34.994Z,99730.31
2022-09-14T23:42:03.800Z,99720.63
2022-09-14T23:44:31.181Z,99726.97
2022-09-14T23:46:58.561Z,99714.94
2022-09-14T23:49:25.929Z,99713.91
2022-09-14T23:51:54.600Z,99711.22
2022-09-14T23:54:22.169Z,99710.22
2022-09-14T23:56:49.636Z,99712.72
2022-09-14T23:59:17.031Z,99715.56
